Time;durP1;ratioP1;P1;durP2;ratioP2;P2;SDS_P1;SDS_P2;PMS_P1;PMS_P2;Temp;Humidity;BMP_temperature;BMP_pressure;BME280_temperature;BME280_humidity;BME280_pressure;Samples;Min_cycle;Max_cycle;Signal;HPM_P1;HPM_P2
2021/10/25 00:04:57;;;;;;;12.53;11.43;;;8.70;99.90;;;;;;10118630;29;20223;-82
2021/10/25 00:10:00;;;;;;;11.30;10.30;;;8.70;99.90;;;;;;10158652;29;20353;-83
2021/10/25 00:15:03;;;;;;;11.70;10.73;;;8.70;99.90;;;;;;10141570;29;20247;-82
2021/10/25 00:20:09;;;;;;;12.00;10.80;;;8.70;99.90;;;;;;10142090;29;20687;-82
2021/10/25 00:25:11;;;;;;;11.30;10.27;;;8.70;99.90;;;;;;10194970;29;20201;-82
2021/10/25 00:30:14;;;;;;;11.07;10.07;;;8.70;99.90;;;;;;10195769;29;20677;-82
2021/10/25 00:35:17;;;;;;;11.20;10.20;;;8.70;99.90;;;;;;10179508;29;20607;-82
2021/10/25 00:40:20;;;;;;;11.17;10.27;;;8.70;99.90;;;;;;10195441;29;20646;-82
2021/10/25 00:45:22;;;;;;;10.87;9.87;;;8.70;99.90;;;;;;10195117;29;20570;-82
2021/10/25 00:50:26;;;;;;;10.53;9.63;;;8.70;99.90;;;;;;10194847;29;20238;-82
2021/10/25 00:55:28;;;;;;;10.87;9.87;;;8.70;99.90;;;;;;10156115;29;20237;-82
2021/10/25 01:00:30;;;;;;;9.93;9.10;;;8.70;99.90;;;;;;10153246;29;20678;-82
2021/10/25 01:05:34;;;;;;;9.67;8.83;;;8.60;99.90;;;;;;10121032;29;20199;-82
2021/10/25 01:10:37;;;;;;;10.50;9.50;;;8.60;99.90;;;;;;10139783;29;20226;-82
2021/10/25 01:15:40;;;;;;;10.80;9.73;;;8.60;99.90;;;;;;10153805;29;20260;-82
2021/10/25 01:20:44;;;;;;;10.40;9.40;;;8.60;99.90;;;;;;10154686;29;20776;-82
2021/10/25 01:25:46;;;;;;;10.17;9.30;;;8.60;99.90;;;;;;10156594;29;20199;-82
2021/10/25 01:30:48;;;;;;;10.23;9.43;;;8.60;99.90;;;;;;10138309;29;20338;-82
2021/10/25 01:35:52;;;;;;;9.60;8.77;;;8.60;99.90;;;;;;10138588;29;20647;-82
2021/10/25 01:40:55;;;;;;;9.67;8.77;;;8.60;99.90;;;;;;10122198;29;20290;-82
2021/10/25 01:45:57;;;;;;;10.37;9.47;;;8.60;99.90;;;;;;10137591;29;20241;-82
2021/10/25 01:51:01;;;;;;;10.80;9.80;;;8.60;99.90;;;;;;10146315;29;20324;-82
2021/10/25 01:56:05;;;;;;;10.00;9.20;;;8.60;99.90;;;;;;10179213;29;20230;-82
2021/10/25 02:01:16;;;;;;;10.97;10.10;;;8.50;99.90;;;;;;10178942;29;20253;-82
2021/10/25 02:06:20;;;;;;;10.33;9.50;;;8.50;99.90;;;;;;10192214;29;20225;-82
2021/10/25 02:11:23;;;;;;;9.87;9.07;;;8.40;99.90;;;;;;10177266;29;20225;-82
2021/10/25 02:16:33;;;;;;;10.97;9.97;;;8.40;99.90;;;;;;10175418;29;20228;-82
2021/10/25 02:21:37;;;;;;;12.03;10.53;;;8.40;99.90;;;;;;10178464;29;20226;-82
2021/10/25 02:26:39;;;;;;;10.40;9.43;;;8.40;99.90;;;;;;10137309;29;20290;-82
2021/10/25 02:31:41;;;;;;;10.07;9.07;;;8.40;99.90;;;;;;10136739;29;20259;-82
2021/10/25 02:36:45;;;;;;;9.40;8.60;;;8.40;99.90;;;;;;10153674;29;20222;-82
2021/10/25 02:41:54;;;;;;;8.70;8.00;;;8.50;99.90;;;;;;10138669;29;20258;-82
2021/10/25 02:46:57;;;;;;;8.67;7.97;;;8.50;99.90;;;;;;10153867;29;20278;-82
2021/10/25 02:52:01;;;;;;;9.23;8.43;;;8.40;99.90;;;;;;10153541;29;20305;-82
2021/10/25 02:57:10;;;;;;;8.20;7.60;;;8.40;99.90;;;;;;10175759;29;20237;-82
2021/10/25 03:02:13;;;;;;;9.00;8.30;;;8.40;99.90;;;;;;10174647;29;20229;-82
2021/10/25 03:07:17;;;;;;;9.53;8.73;;;8.40;99.90;;;;;;10190643;29;20237;-82
2021/10/25 03:12:21;;;;;;;9.23;8.53;;;8.30;99.90;;;;;;10174884;29;20686;-82
2021/10/25 03:17:25;;;;;;;8.53;7.67;;;8.30;99.90;;;;;;10190109;29;20748;-82
2021/10/25 03:22:41;;;;;;;10.03;9.10;;;8.30;99.90;;;;;;10154082;29;20294;-82
2021/10/25 03:27:44;;;;;;;9.53;8.60;;;8.20;99.90;;;;;;10152136;29;20205;-82
2021/10/25 03:32:46;;;;;;;9.10;8.23;;;8.20;99.90;;;;;;10151528;29;20223;-82
2021/10/25 03:38:11;;;;;;;8.67;7.97;;;8.20;99.90;;;;;;10151661;29;20210;-82
2021/10/25 03:43:13;;;;;;;8.10;7.50;;;8.20;99.90;;;;;;10151707;29;20230;-82
2021/10/25 03:48:22;;;;;;;8.87;8.00;;;8.10;99.90;;;;;;10135386;29;20207;-82
2021/10/25 03:53:32;;;;;;;8.10;7.50;;;8.10;99.90;;;;;;10160746;29;20241;-82
2021/10/25 03:58:58;;;;;;;11.07;8.20;;;8.10;99.90;;;;;;10184484;29;20285;-82
2021/10/25 04:04:24;;;;;;;8.30;7.60;;;8.10;99.90;;;;;;10173575;29;20201;-82
2021/10/25 04:31:01;;;;;;;9.70;8.90;;;7.90;99.90;;;;;;10150289;29;20309;-82
2021/10/25 04:36:11;;;;;;;10.80;9.80;;;7.90;99.90;;;;;;10147502;29;20207;-83
2021/10/25 04:41:21;;;;;;;11.63;10.43;;;7.80;99.90;;;;;;10134392;29;20650;-82
2021/10/25 04:46:24;;;;;;;11.07;10.07;;;7.90;99.90;;;;;;10148546;29;20198;-82
2021/10/25 04:51:28;;;;;;;13.67;12.47;;;7.90;99.90;;;;;;10119068;29;20711;-82
2021/10/25 04:56:37;;;;;;;12.03;11.00;;;7.90;99.90;;;;;;10139154;29;20206;-81
2021/10/25 05:01:39;;;;;;;13.43;12.13;;;7.90;99.90;;;;;;10123624;29;20226;-81
2021/10/25 05:06:42;;;;;;;12.83;11.63;;;7.80;99.90;;;;;;10139163;29;20199;-81
2021/10/25 05:11:45;;;;;;;13.17;11.77;;;7.90;99.90;;;;;;10123187;29;20241;-81
2021/10/25 05:16:47;;;;;;;13.40;12.20;;;7.90;99.90;;;;;;10139030;29;20227;-81
2021/10/25 05:21:50;;;;;;;11.80;10.90;;;7.90;99.90;;;;;;10139401;29;20230;-81
2021/10/25 05:26:53;;;;;;;11.90;10.90;;;8.00;99.90;;;;;;10121594;29;20243;-81
2021/10/25 05:31:55;;;;;;;11.73;10.63;;;8.00;99.90;;;;;;10137555;29;20616;-81
2021/10/25 05:36:58;;;;;;;13.93;12.60;;;8.00;99.90;;;;;;10120637;29;20241;-81
2021/10/25 05:42:05;;;;;;;11.80;10.70;;;8.00;99.90;;;;;;10120975;29;20230;-81
2021/10/25 05:47:07;;;;;;;12.10;10.93;;;7.90;99.90;;;;;;10135725;29;20208;-81
2021/10/25 05:52:10;;;;;;;12.60;11.60;;;7.90;99.90;;;;;;10138690;29;20242;-81
2021/10/25 05:57:16;;;;;;;14.10;12.73;;;7.90;99.90;;;;;;10136955;29;20245;-81
2021/10/25 06:02:25;;;;;;;11.03;10.13;;;7.90;99.90;;;;;;10122167;29;20337;-81
2021/10/25 06:07:41;;;;;;;15.50;13.20;;;7.90;99.90;;;;;;10136087;29;20199;-81
2021/10/25 06:12:47;;;;;;;11.77;10.70;;;7.90;99.90;;;;;;10121930;29;20223;-82
2021/10/25 06:17:55;;;;;;;11.80;10.70;;;7.90;99.90;;;;;;10120449;29;20234;-82
2021/10/25 06:22:58;;;;;;;13.27;12.07;;;7.90;99.90;;;;;;10122643;29;20707;-81
2021/10/25 06:28:06;;;;;;;12.53;11.33;;;7.90;99.90;;;;;;10119574;29;20241;-82
2021/10/25 06:33:17;;;;;;;12.33;11.03;;;7.90;99.90;;;;;;10118352;29;20222;-82
2021/10/25 06:38:54;;;;;;;14.40;12.70;;;7.90;99.90;;;;;;10134469;29;20230;-82
2021/10/25 06:43:59;;;;;;;11.70;10.63;;;7.90;99.90;;;;;;10120589;29;20203;-82
2021/10/25 06:49:02;;;;;;;11.37;10.37;;;7.90;99.90;;;;;;10134600;29;20575;-82
2021/10/25 06:54:07;;;;;;;11.43;10.43;;;8.00;99.90;;;;;;10137934;29;20234;-82
2021/10/25 06:59:11;;;;;;;10.30;9.37;;;8.00;99.90;;;;;;10160685;29;20257;-82
2021/10/25 07:04:16;;;;;;;10.97;9.90;;;8.00;99.90;;;;;;10174342;29;20282;-82
2021/10/25 07:09:20;;;;;;;10.60;9.63;;;8.10;99.90;;;;;;10157582;29;20225;-82
2021/10/25 07:14:29;;;;;;;10.30;9.30;;;8.20;99.90;;;;;;10159071;29;20234;-82
2021/10/25 07:19:43;;;;;;;11.30;10.20;;;8.20;99.90;;;;;;10159677;29;20249;-82
2021/10/25 08:03:06;;;;;;;11.37;10.13;;;9.40;99.90;;;;;;10134299;29;20224;-82
2021/10/25 08:08:22;;;;;;;11.33;10.33;;;9.60;99.90;;;;;;10119367;29;20572;-81
2021/10/25 08:13:36;;;;;;;11.03;9.87;;;9.70;99.90;;;;;;10119379;29;20225;-82
2021/10/25 08:19:07;;;;;;;12.80;10.13;;;9.90;99.90;;;;;;10102799;29;20230;-81
2021/10/25 08:24:10;;;;;;;11.00;9.93;;;10.10;99.90;;;;;;10134023;29;20272;-81
2021/10/25 08:29:45;;;;;;;11.17;10.03;;;10.30;99.90;;;;;;10127982;29;20309;-81
2021/10/25 08:34:57;;;;;;;10.07;9.13;;;10.50;99.90;;;;;;10127024;29;20219;-82
2021/10/25 08:40:17;;;;;;;10.70;9.70;;;10.70;99.90;;;;;;10143048;29;20279;-82
2021/10/25 08:45:28;;;;;;;10.60;9.70;;;11.00;99.90;;;;;;10140753;29;20199;-82
2021/10/25 08:50:34;;;;;;;23.30;11.37;;;11.10;99.90;;;;;;10124255;29;20238;-82
2021/10/25 08:55:39;;;;;;;12.63;11.50;;;11.30;99.90;;;;;;10123964;29;20226;-82
2021/10/25 09:00:44;;;;;;;12.77;11.47;;;11.40;99.90;;;;;;10130179;29;20611;-82
2021/10/25 09:06:14;;;;;;;11.90;10.70;;;11.50;99.90;;;;;;10153163;29;20198;-82
2021/10/25 09:11:18;;;;;;;12.90;11.70;;;11.50;99.90;;;;;;10149623;29;20226;-82
2021/10/25 09:16:45;;;;;;;11.70;10.70;;;11.60;99.90;;;;;;10154475;29;20229;-83
2021/10/25 09:21:50;;;;;;;16.00;14.20;;;11.70;99.90;;;;;;10164172;29;20606;-82
2021/10/25 09:26:59;;;;;;;13.40;12.10;;;11.70;99.90;;;;;;10187965;29;20643;-82
2021/10/25 09:32:08;;;;;;;14.10;12.70;;;11.70;99.90;;;;;;10188207;29;20228;-83
2021/10/25 09:37:27;;;;;;;16.27;12.20;;;11.80;99.90;;;;;;10175436;29;20226;-82
2021/10/25 09:53:43;;;;;;;11.63;10.43;;;11.80;99.90;;;;;;10126356;29;20234;-83
2021/10/25 09:58:55;;;;;;;10.23;9.13;;;11.80;99.90;;;;;;10147599;29;20226;-83
2021/10/25 10:03:58;;;;;;;12.37;11.03;;;11.80;99.90;;;;;;10165889;29;20206;-83
2021/10/25 10:09:22;;;;;;;10.70;9.60;;;11.80;99.90;;;;;;10154395;29;20225;-84
2021/10/25 10:14:26;;;;;;;10.37;8.60;;;11.90;99.90;;;;;;10159132;29;20258;-83
2021/10/25 10:19:31;;;;;;;10.53;9.40;;;12.00;99.90;;;;;;10142893;29;20222;-83
2021/10/25 10:25:10;;;;;;;11.03;9.97;;;12.20;99.90;;;;;;10146171;29;20278;-84
2021/10/25 10:30:16;;;;;;;10.30;9.27;;;12.40;99.90;;;;;;10147936;29;20264;-83
2021/10/25 10:35:26;;;;;;;9.87;8.80;;;12.50;99.90;;;;;;10165658;29;20219;-83
2021/10/25 10:40:53;;;;;;;9.60;8.70;;;12.50;99.90;;;;;;10164274;29;20294;-83
2021/10/25 10:46:13;;;;;;;12.73;9.80;;;12.50;99.90;;;;;;10187943;29;20666;-83
2021/10/25 10:51:18;;;;;;;11.00;9.90;;;12.40;99.90;;;;;;10146749;29;20242;-83
2021/10/25 10:56:26;;;;;;;10.40;9.40;;;12.40;99.90;;;;;;10106115;29;20326;-83
2021/10/25 11:01:28;;;;;;;10.23;9.33;;;12.40;99.90;;;;;;10136879;29;20230;-83
2021/10/25 11:06:32;;;;;;;11.13;10.07;;;12.30;99.90;;;;;;10107027;29;20202;-83
2021/10/25 11:11:36;;;;;;;12.23;11.00;;;12.30;99.90;;;;;;10139652;29;20236;-83
2021/10/25 11:16:41;;;;;;;11.10;10.20;;;12.40;99.90;;;;;;10167804;29;20217;-83
2021/10/25 11:21:51;;;;;;;11.17;10.17;;;12.50;99.90;;;;;;10138326;29;20230;-83
2021/10/25 11:26:56;;;;;;;11.17;10.17;;;12.60;99.90;;;;;;10126477;29;20240;-82
2021/10/25 11:32:00;;;;;;;10.80;9.73;;;12.70;99.90;;;;;;10134713;29;20227;-83
2021/10/25 11:37:07;;;;;;;11.53;10.10;;;12.70;99.90;;;;;;10132482;29;20711;-83
2021/10/25 11:42:12;;;;;;;10.10;9.17;;;12.60;99.90;;;;;;10134147;29;20581;-83
2021/10/25 11:47:20;;;;;;;12.10;8.40;;;12.60;99.90;;;;;;10117363;29;20207;-83
2021/10/25 11:52:23;;;;;;;10.60;9.10;;;12.60;99.90;;;;;;10141411;29;20249;-83
2021/10/25 11:57:28;;;;;;;9.13;8.30;;;12.60;99.90;;;;;;10154731;29;20221;-83
2021/10/25 12:02:31;;;;;;;11.57;9.30;;;12.60;99.90;;;;;;10156702;29;20241;-83
2021/10/25 12:07:45;;;;;;;10.83;8.87;;;12.50;99.90;;;;;;10146962;29;20205;-83
2021/10/25 12:12:51;;;;;;;11.03;8.50;;;12.50;99.90;;;;;;10146720;29;20221;-83
2021/10/25 12:17:58;;;;;;;9.23;8.43;;;12.50;99.90;;;;;;10129558;29;20234;-83
2021/10/25 12:23:02;;;;;;;8.90;8.10;;;12.50;99.90;;;;;;10145950;29;20257;-83
2021/10/25 12:28:11;;;;;;;9.43;8.53;;;12.50;99.90;;;;;;10113041;29;20229;-83
2021/10/25 12:33:14;;;;;;;9.40;7.87;;;12.60;99.90;;;;;;10148655;29;20254;-83
2021/10/25 12:38:19;;;;;;;7.67;6.97;;;12.70;99.90;;;;;;10180373;29;20285;-83
2021/10/25 12:43:23;;;;;;;8.80;8.00;;;12.80;99.90;;;;;;10171838;29;20282;-83
2021/10/25 12:48:25;;;;;;;8.53;7.70;;;12.90;99.90;;;;;;10140479;29;20724;-83
2021/10/25 12:53:30;;;;;;;7.43;6.70;;;13.00;99.90;;;;;;10154257;29;20724;-83
2021/10/25 12:58:33;;;;;;;6.20;5.60;;;13.10;99.90;;;;;;10129318;29;20242;-83
2021/10/25 13:03:35;;;;;;;5.33;4.87;;;13.30;99.90;;;;;;10152468;29;20293;-83
2021/10/25 13:08:38;;;;;;;6.03;5.53;;;13.50;99.90;;;;;;10163900;29;20194;-83
2021/10/25 13:13:45;;;;;;;6.00;5.50;;;13.70;99.90;;;;;;10166701;29;20201;-83
2021/10/25 13:18:47;;;;;;;5.53;5.03;;;13.70;99.90;;;;;;10150149;29;20226;-83
2021/10/25 13:23:49;;;;;;;5.40;4.90;;;13.70;99.90;;;;;;10135417;29;20648;-83
2021/10/25 13:28:53;;;;;;;5.23;4.80;;;13.60;99.90;;;;;;10172980;29;20222;-83
2021/10/25 13:33:55;;;;;;;6.00;5.47;;;13.60;99.90;;;;;;10162916;29;20267;-83
2021/10/25 13:38:57;;;;;;;4.77;4.33;;;13.60;99.90;;;;;;10165480;29;20295;-83
2021/10/25 13:44:01;;;;;;;3.77;3.47;;;13.50;99.90;;;;;;10147048;29;20254;-83
2021/10/25 13:49:04;;;;;;;4.27;3.97;;;13.50;99.90;;;;;;10162613;29;20237;-83
2021/10/25 13:54:07;;;;;;;4.17;3.87;;;13.60;99.90;;;;;;10157841;29;20723;-83
2021/10/25 13:59:11;;;;;;;11.03;9.93;;;13.70;99.90;;;;;;10146326;29;20592;-83
2021/10/25 14:04:16;;;;;;;4.43;4.03;;;13.90;99.90;;;;;;10145681;29;20206;-83
2021/10/25 14:09:19;;;;;;;3.90;3.60;;;14.00;99.90;;;;;;10155583;29;20221;-83
2021/10/25 14:14:25;;;;;;;3.73;3.43;;;14.00;99.90;;;;;;10160670;29;20239;-83
2021/10/25 14:19:29;;;;;;;3.97;3.57;;;14.10;99.90;;;;;;10135160;29;20230;-83
2021/10/25 14:24:31;;;;;;;2.77;2.57;;;14.20;99.90;;;;;;10113479;29;20272;-83
2021/10/25 14:29:34;;;;;;;4.73;3.13;;;14.20;99.90;;;;;;10134641;29;20218;-83
2021/10/25 14:34:36;;;;;;;3.50;3.20;;;14.10;99.90;;;;;;10158277;29;20286;-83
2021/10/25 14:39:42;;;;;;;3.70;3.40;;;14.10;99.90;;;;;;10160354;29;20222;-83
2021/10/25 14:44:50;;;;;;;7.90;4.10;;;14.10;99.90;;;;;;10161454;29;20628;-83
2021/10/25 14:55:15;;;;;;;4.30;3.90;;;13.90;99.90;;;;;;10143851;29;20225;-82
2021/10/25 15:00:22;;;;;;;3.70;3.40;;;13.90;99.90;;;;;;10149271;29;20294;-83
2021/10/25 15:05:24;;;;;;;7.17;3.90;;;13.80;99.90;;;;;;10141817;29;20637;-83
2021/10/25 15:10:27;;;;;;;4.73;4.33;;;13.80;99.90;;;;;;10173906;29;20226;-83
2021/10/25 15:15:30;;;;;;;7.30;4.00;;;13.70;99.90;;;;;;10155285;29;20334;-83
2021/10/25 15:20:32;;;;;;;5.60;3.40;;;13.70;99.90;;;;;;10134415;29;20217;-83
2021/10/25 15:25:36;;;;;;;5.63;3.33;;;13.70;99.90;;;;;;10125075;29;20194;-83
2021/10/25 15:30:40;;;;;;;3.83;3.50;;;13.70;99.90;;;;;;10156680;29;20241;-83
2021/10/25 15:35:42;;;;;;;3.83;3.53;;;13.70;99.90;;;;;;10156559;29;20302;-83
2021/10/25 15:40:45;;;;;;;4.60;4.30;;;13.70;99.90;;;;;;10131910;29;20225;-83
2021/10/25 15:45:48;;;;;;;5.13;4.23;;;13.70;99.90;;;;;;10141527;29;20214;-83
2021/10/25 15:50:50;;;;;;;6.63;4.07;;;13.80;99.90;;;;;;10156418;29;20702;-83
2021/10/25 15:55:52;;;;;;;4.50;4.20;;;13.80;99.90;;;;;;10141380;29;20289;-83
2021/10/25 16:00:57;;;;;;;5.20;4.20;;;13.70;99.90;;;;;;10130939;29;20646;-83
2021/10/25 16:06:00;;;;;;;4.37;4.03;;;13.70;99.90;;;;;;10126027;29;20196;-83
2021/10/25 16:11:02;;;;;;;5.73;4.13;;;13.70;99.90;;;;;;10156209;29;20289;-83
2021/10/25 16:16:06;;;;;;;4.47;4.07;;;13.60;99.90;;;;;;10153114;29;20220;-83
2021/10/25 16:21:08;;;;;;;5.53;4.70;;;13.50;99.90;;;;;;10121031;29;20237;-83
2021/10/25 16:26:10;;;;;;;4.40;4.00;;;13.40;99.90;;;;;;10103741;29;20225;-83
2021/10/25 16:31:13;;;;;;;5.23;4.60;;;13.30;99.90;;;;;;10149373;29;20684;-83
2021/10/25 16:36:16;;;;;;;5.17;4.77;;;13.20;99.90;;;;;;10105215;29;20223;-83
2021/10/25 16:41:19;;;;;;;4.90;4.40;;;13.10;99.90;;;;;;10163349;29;20226;-82
2021/10/25 16:46:23;;;;;;;5.93;5.43;;;13.00;99.90;;;;;;10154141;29;20211;-82
2021/10/25 16:51:32;;;;;;;5.40;5.00;;;12.90;99.90;;;;;;10153584;29;20234;-83
2021/10/25 17:12:40;;;;;;;3.63;3.30;;;12.60;99.90;;;;;;10169437;29;20305;-83
2021/10/25 17:17:45;;;;;;;6.77;6.17;;;12.60;99.90;;;;;;10172289;29;20214;-82
2021/10/25 17:22:49;;;;;;;6.47;5.53;;;12.50;99.90;;;;;;10169678;29;20248;-83
2021/10/25 17:27:51;;;;;;;10.97;9.97;;;12.50;99.90;;;;;;10165859;29;20202;-83
2021/10/25 17:32:55;;;;;;;8.03;7.33;;;12.50;99.90;;;;;;10166589;29;20237;-82
2021/10/25 17:37:57;;;;;;;7.17;6.50;;;12.50;99.90;;;;;;10163935;29;20281;-82
2021/10/25 17:43:06;;;;;;;6.30;5.80;;;12.50;99.90;;;;;;10154624;29;20226;-83
2021/10/25 17:48:11;;;;;;;8.00;5.47;;;12.40;99.90;;;;;;10172828;29;20199;-84
2021/10/25 17:53:14;;;;;;;7.20;5.53;;;12.30;99.90;;;;;;10161715;29;20238;-83
2021/10/25 17:58:18;;;;;;;8.20;7.47;;;12.20;99.90;;;;;;10150946;29;20238;-84
2021/10/25 18:03:22;;;;;;;7.80;7.20;;;12.10;99.90;;;;;;10161749;29;20534;-83
2021/10/25 18:08:26;;;;;;;6.50;5.90;;;12.00;99.90;;;;;;10128046;29;20217;-83
2021/10/25 18:13:28;;;;;;;7.33;6.73;;;12.00;99.90;;;;;;10150846;29;20222;-83
2021/10/25 18:18:31;;;;;;;7.07;6.37;;;12.00;99.90;;;;;;10138781;29;20577;-83
2021/10/25 18:23:33;;;;;;;7.00;6.50;;;11.90;99.90;;;;;;10141436;29;20213;-83
2021/10/25 18:28:35;;;;;;;11.23;10.23;;;11.80;99.90;;;;;;10149942;29;20217;-83
2021/10/25 18:33:39;;;;;;;8.47;7.77;;;11.80;99.90;;;;;;10123760;29;20258;-83
2021/10/25 18:38:41;;;;;;;11.30;10.10;;;11.80;99.90;;;;;;10146081;29;20258;-83
2021/10/25 18:43:43;;;;;;;24.40;21.17;;;11.70;99.90;;;;;;10140597;29;20248;-83
2021/10/25 18:48:47;;;;;;;9.20;7.60;;;11.70;99.90;;;;;;10159033;29;20682;-83
2021/10/25 18:53:49;;;;;;;7.27;6.70;;;11.60;99.90;;;;;;10164403;29;20225;-83
2021/10/25 18:58:52;;;;;;;7.90;7.30;;;11.60;99.90;;;;;;10164408;29;20264;-83
2021/10/25 19:03:55;;;;;;;7.30;6.60;;;11.50;99.90;;;;;;10180339;29;20206;-83
2021/10/25 19:08:57;;;;;;;7.40;6.70;;;11.50;99.90;;;;;;10179332;29;20304;-83
2021/10/25 19:14:05;;;;;;;7.60;6.63;;;11.40;99.90;;;;;;10178180;29;20261;-83
2021/10/25 19:19:10;;;;;;;6.20;5.70;;;11.40;99.90;;;;;;10163311;29;20256;-83
2021/10/25 19:24:13;;;;;;;6.87;6.37;;;11.40;99.90;;;;;;10180118;29;20266;-83
2021/10/25 19:29:17;;;;;;;8.03;7.33;;;11.40;99.90;;;;;;10163174;29;20281;-83
2021/10/25 19:34:21;;;;;;;7.77;7.07;;;11.30;99.90;;;;;;10182284;29;20198;-83
2021/10/25 19:39:23;;;;;;;9.40;7.23;;;11.30;99.90;;;;;;10167241;29;20236;-83
2021/10/25 19:44:26;;;;;;;11.67;6.70;;;11.20;99.90;;;;;;10170046;29;20687;-84
2021/10/25 19:49:30;;;;;;;7.77;7.07;;;11.20;99.90;;;;;;10180791;29;20234;-83
2021/10/25 19:54:33;;;;;;;8.10;7.27;;;11.20;99.90;;;;;;10179734;29;20217;-83
2021/10/25 19:59:36;;;;;;;10.80;8.23;;;11.20;99.90;;;;;;10160994;29;20245;-83
2021/10/25 20:04:39;;;;;;;7.57;6.87;;;11.20;99.90;;;;;;10174865;29;20221;-83
2021/10/25 20:09:41;;;;;;;7.60;7.00;;;11.10;99.90;;;;;;10172298;29;20214;-83
2021/10/25 20:14:45;;;;;;;7.37;6.67;;;11.10;99.90;;;;;;10157011;29;20209;-83
2021/10/25 20:19:48;;;;;;;8.10;7.40;;;11.10;99.90;;;;;;10150487;29;20233;-83
2021/10/25 20:24:50;;;;;;;8.70;7.90;;;11.00;99.90;;;;;;10159180;29;20301;-83
2021/10/25 20:29:53;;;;;;;8.53;7.70;;;11.00;99.90;;;;;;10173695;29;20221;-83
2021/10/25 20:34:57;;;;;;;7.10;6.40;;;11.00;99.90;;;;;;10176177;29;20218;-83
2021/10/25 20:40:00;;;;;;;7.80;7.10;;;11.00;99.90;;;;;;10178628;29;20229;-83
2021/10/25 20:45:02;;;;;;;8.50;7.80;;;11.00;99.90;;;;;;10194696;29;20256;-83
2021/10/25 20:50:06;;;;;;;9.70;8.80;;;11.00;99.90;;;;;;10196057;29;20717;-83
2021/10/25 20:55:10;;;;;;;9.60;8.80;;;10.90;99.90;;;;;;10196288;29;20210;-83
2021/10/25 21:00:14;;;;;;;10.20;9.20;;;11.00;99.90;;;;;;10182174;29;20237;-83
2021/10/25 21:05:20;;;;;;;9.70;8.80;;;11.00;99.90;;;;;;10180092;29;20205;-83
2021/10/25 21:10:22;;;;;;;8.43;7.73;;;10.90;99.90;;;;;;10161411;29;20219;-83
2021/10/25 21:15:25;;;;;;;8.97;8.07;;;10.90;99.90;;;;;;10196394;29;20221;-83
2021/10/25 21:20:30;;;;;;;7.27;6.60;;;10.90;99.90;;;;;;10189261;29;20240;-83
2021/10/25 21:25:32;;;;;;;6.40;5.80;;;10.90;99.90;;;;;;10183664;29;20625;-83
2021/10/25 21:30:35;;;;;;;7.20;6.50;;;10.80;99.90;;;;;;10185759;29;20273;-83
2021/10/25 21:35:38;;;;;;;8.10;6.43;;;10.90;99.90;;;;;;10167247;29;20702;-83
2021/10/25 21:40:41;;;;;;;6.33;5.73;;;10.90;99.90;;;;;;10167694;29;20743;-83
2021/10/25 21:45:51;;;;;;;6.97;6.37;;;10.90;99.90;;;;;;10168301;29;20205;-83
2021/10/25 21:51:01;;;;;;;8.43;6.60;;;10.90;99.90;;;;;;10168046;29;20725;-83
2021/10/25 21:56:10;;;;;;;9.97;7.23;;;10.90;99.90;;;;;;10169488;29;20622;-83
2021/10/25 22:01:12;;;;;;;7.13;6.60;;;10.90;99.90;;;;;;10184945;29;20234;-83
2021/10/25 22:06:16;;;;;;;6.90;6.10;;;10.80;99.90;;;;;;10169785;29;20210;-83
2021/10/25 22:11:18;;;;;;;7.37;6.77;;;10.90;99.90;;;;;;10186283;29;20266;-83
2021/10/25 22:16:20;;;;;;;8.33;6.30;;;10.90;99.90;;;;;;10170505;29;20233;-83
2021/10/25 22:21:24;;;;;;;7.03;6.40;;;10.90;99.90;;;;;;10170933;29;20240;-83
2021/10/25 22:26:26;;;;;;;7.77;7.07;;;10.90;99.90;;;;;;10185890;29;20237;-83
2021/10/25 22:31:28;;;;;;;7.03;6.53;;;10.90;99.90;;;;;;10171620;29;20214;-83
2021/10/25 22:36:31;;;;;;;6.70;6.13;;;11.00;99.90;;;;;;10171236;29;20230;-83
2021/10/25 22:41:33;;;;;;;8.27;7.67;;;11.00;99.90;;;;;;10170471;29;20237;-83
2021/10/25 22:46:39;;;;;;;8.27;7.57;;;11.10;99.90;;;;;;10169532;29;20281;-83
2021/10/25 22:51:46;;;;;;;7.97;7.27;;;11.10;99.90;;;;;;10225463;23;20236;-84
2021/10/25 22:56:48;;;;;;;6.87;6.37;;;11.20;99.90;;;;;;10257058;29;20227;-84
2021/10/25 23:01:51;;;;;;;8.87;7.03;;;11.20;99.90;;;;;;10236500;29;20217;-83
2021/10/25 23:06:55;;;;;;;8.33;7.53;;;11.30;99.90;;;;;;10219285;29;20225;-83
2021/10/25 23:11:57;;;;;;;7.30;6.70;;;11.30;99.90;;;;;;10220597;29;20509;-84
2021/10/25 23:16:59;;;;;;;8.60;7.70;;;11.30;99.90;;;;;;10192656;29;20673;-83
2021/10/25 23:22:04;;;;;;;6.97;6.37;;;11.30;99.90;;;;;;10200723;29;20221;-83
2021/10/25 23:27:06;;;;;;;7.80;7.10;;;11.20;99.90;;;;;;10184526;29;20220;-83
2021/10/25 23:32:09;;;;;;;7.73;6.80;;;11.20;99.90;;;;;;10201266;29;20307;-83
2021/10/25 23:37:15;;;;;;;7.73;7.03;;;11.20;99.90;;;;;;10218087;29;20261;-84
2021/10/25 23:42:17;;;;;;;7.30;6.63;;;11.10;99.90;;;;;;10216685;29;20605;-84
2021/10/25 23:47:19;;;;;;;7.53;6.90;;;11.10;99.90;;;;;;10202553;29;20623;-84
2021/10/25 23:52:22;;;;;;;7.10;6.57;;;11.10;99.90;;;;;;10204323;29;20240;-84
2021/10/25 23:57:25;;;;;;;7.80;7.20;;;11.10;99.90;;;;;;10219275;29;20642;-84
